sensor_id;sensor_type;location;lat;lon;timestamp;pressure;altitude;pressure_sealevel;temperature;humidity
46174;BME280;31897;52.420;13.498;2023-07-20T00:02:34;100700;;;16.59336;37.46283
46174;BME280;31897;52.420;13.498;2023-07-20T00:05:35;100700;;;16.60305;37.55215
46174;BME280;31897;52.420;13.498;2023-07-20T00:08:35;100700;;;16.59529;37.55223
46174;BME280;31897;52.420;13.498;2023-07-20T00:11:37;100700;;;16.56137;37.64198
46174;BME280;31897;52.420;13.498;2023-07-20T00:14:38;100700;;;16.55039;37.69573
46174;BME280;31897;52.420;13.498;2023-07-20T00:17:39;100700;;;16.58334;37.7252
46174;BME280;31897;52.420;13.498;2023-07-20T00:20:39;100700;;;16.57268;37.60014
46174;BME280;31897;52.420;13.498;2023-07-20T00:23:40;100700;;;16.52648;37.58869
46174;BME280;31897;52.420;13.498;2023-07-20T00:26:41;100700;;;16.47059;37.63097
46174;BME280;31897;52.420;13.498;2023-07-20T00:29:42;100700;;;16.48028;37.76197
46174;BME280;31897;52.420;13.498;2023-07-20T00:32:43;100700;;;16.51711;37.7199
46174;BME280;31897;52.420;13.498;2023-07-20T00:35:43;100700;;;16.50161;37.54127
46174;BME280;31897;52.420;13.498;2023-07-20T00:38:45;100700;;;16.51162;37.60076
46174;BME280;31897;52.420;13.498;2023-07-20T00:41:45;100700;;;16.52713;37.62444
46174;BME280;31897;52.420;13.498;2023-07-20T00:44:46;100700;;;16.60046;37.52237
46174;BME280;31897;52.420;13.498;2023-07-20T00:47:47;100700;;;16.63826;37.45044
46174;BME280;31897;52.420;13.498;2023-07-20T00:50:48;100700;;;16.68252;37.2711
46174;BME280;31897;52.420;13.498;2023-07-20T00:53:49;100700;;;16.70352;37.1874
46174;BME280;31897;52.420;13.498;2023-07-20T00:56:50;100700;;;16.67768;37.15191
46174;BME280;31897;52.420;13.498;2023-07-20T00:59:51;100700;;;16.66055;37.19383
46174;BME280;31897;52.420;13.498;2023-07-20T01:02:52;100700;;;16.66249;37.2117
46174;BME280;31897;52.420;13.498;2023-07-20T01:05:54;100700;;;16.61629;37.08701
46174;BME280;31897;52.420;13.498;2023-07-20T01:08:57;100700;;;16.57559;37.21266
46174;BME280;31897;52.420;13.498;2023-07-20T01:12:04;100700;;;16.60305;37.21235
46174;BME280;31897;52.420;13.498;2023-07-20T01:15:06;100700;;;16.60757;37.20038
46174;BME280;31897;52.420;13.498;2023-07-20T01:18:07;100700;;;16.5898;37.11712
46174;BME280;31897;52.420;13.498;2023-07-20T01:21:09;100700;;;16.58948;37.22443
46174;BME280;31897;52.420;13.498;2023-07-20T01:24:20;100700;;;16.61016;37.19439
46174;BME280;31897;52.420;13.498;2023-07-20T01:27:29;100700;;;16.5898;37.12308
46174;BME280;31897;52.420;13.498;2023-07-20T01:30:45;100700;;;16.54587;37.15933
46174;BME280;31897;52.420;13.498;2023-07-20T01:33:46;100700;;;16.55136;37.21888
46174;BME280;31897;52.420;13.498;2023-07-20T01:36:47;100700;;;16.43409;37.21421
46174;BME280;31897;52.420;13.498;2023-07-20T01:39:50;100700;;;16.32425;37.25115
46174;BME280;31897;52.420;13.498;2023-07-20T01:42:51;100700;;;16.29614;37.4957
46174;BME280;31897;52.420;13.498;2023-07-20T01:45:53;100700;;;16.31423;37.5253
46174;BME280;31897;52.420;13.498;2023-07-20T01:48:54;100700;;;16.33329;37.65021
46174;BME280;31897;52.420;13.498;2023-07-20T01:51:55;100700;;;16.35009;37.51898
46174;BME280;31897;52.420;13.498;2023-07-20T01:54:56;100700;;;16.26577;37.47218
46174;BME280;31897;52.420;13.498;2023-07-20T01:57:57;100700;;;16.2199;37.58582
46174;BME280;31897;52.420;13.498;2023-07-20T02:00:58;100700;;;16.19082;37.52655
46174;BME280;31897;52.420;13.498;2023-07-20T02:03:59;100700;;;16.09616;37.724
46174;BME280;31897;52.420;13.498;2023-07-20T02:07:00;100700;;;16.08809;37.90269
46174;BME280;31897;52.420;13.498;2023-07-20T02:10:00;100700;;;16.12912;37.95589
46174;BME280;31897;52.420;13.498;2023-07-20T02:13:01;100700;;;16.10521;37.90253
46174;BME280;31897;52.420;13.498;2023-07-20T02:16:02;100700;;;16.12233;37.83688
46174;BME280;31897;52.420;13.498;2023-07-20T02:19:03;100700;;;16.14462;37.83071
46174;BME280;31897;52.420;13.498;2023-07-20T02:22:04;100700;;;16.1569;37.72341
46174;BME280;31897;52.420;13.498;2023-07-20T02:25:05;100700;;;16.16045;37.61619
46174;BME280;31897;52.420;13.498;2023-07-20T02:28:06;100700;;;16.14721;37.62227
46174;BME280;31897;52.420;13.498;2023-07-20T02:31:07;100700;;;16.12718;37.5927
46174;BME280;31897;52.420;13.498;2023-07-20T02:34:08;100700;;;16.12233;37.52129
46174;BME280;31897;52.420;13.498;2023-07-20T02:37:09;100700;;;16.08001;37.48004
46174;BME280;31897;52.420;13.498;2023-07-20T02:40:10;100700;;;16.02283;37.39727
46174;BME280;31897;52.420;13.498;2023-07-20T02:43:11;100700;;;16.01475;37.4688
46174;BME280;31897;52.420;13.498;2023-07-20T02:46:11;100700;;;16.02638;37.32579
46174;BME280;31897;52.420;13.498;2023-07-20T02:49:12;100700;;;15.96597;37.24309
46174;BME280;31897;52.420;13.498;2023-07-20T02:52:13;100700;;;15.93431;37.38033
46174;BME280;31897;52.420;13.498;2023-07-20T02:55:14;100700;;;15.9566;37.33843
46174;BME280;31897;52.420;13.498;2023-07-20T02:58:14;100700;;;15.87842;37.11307
46174;BME280;31897;52.420;13.498;2023-07-20T03:01:15;100700;;;15.83061;37.3576
46174;BME280;31897;52.420;13.498;2023-07-20T03:04:16;100700;;;15.77472;37.28082
46174;BME280;31897;52.420;13.498;2023-07-20T03:07:17;100700;;;15.72077;37.40633
46174;BME280;31897;52.420;13.498;2023-07-20T03:10:18;100700;;;15.75501;37.51903
46174;BME280;31897;52.420;13.498;2023-07-20T03:13:18;100700;;;15.82415;37.47668
46174;BME280;31897;52.420;13.498;2023-07-20T03:16:19;100700;;;15.85678;37.4347
46174;BME280;31897;52.420;13.498;2023-07-20T03:19:20;100700;;;15.84353;37.38722
46174;BME280;31897;52.420;13.498;2023-07-20T03:22:21;100700;;;15.83255;37.33378
46174;BME280;31897;52.420;13.498;2023-07-20T03:25:21;100700;;;15.8235;37.2327
46174;BME280;31897;52.420;13.498;2023-07-20T03:28:22;100700;;;15.86453;37.22631
46174;BME280;31897;52.420;13.498;2023-07-20T03:31:23;100700;;;15.83836;37.13137
46174;BME280;31897;52.420;13.498;2023-07-20T03:34:24;100700;;;15.83513;37.15521
46174;BME280;31897;52.420;13.498;2023-07-20T03:37:24;100700;;;15.86001;37.024
46174;BME280;31897;52.420;13.498;2023-07-20T03:40:25;100700;;;15.85968;36.95257
46174;BME280;31897;52.420;13.498;2023-07-20T03:43:27;100700;;;15.79572;37.05447
46174;BME280;31897;52.420;13.498;2023-07-20T03:46:28;100700;;;15.72949;36.96594
46174;BME280;31897;52.420;13.498;2023-07-20T03:49:28;100700;;;15.75178;37.07875
46174;BME280;31897;52.420;13.498;2023-07-20T03:52:29;100700;;;15.79766;37.00088
46174;BME280;31897;52.420;13.498;2023-07-20T03:55:30;100700;;;15.80961;36.76864
46174;BME280;31897;52.420;13.498;2023-07-20T03:58:31;100700;;;15.74564;36.97766
46174;BME280;31897;52.420;13.498;2023-07-20T04:01:31;100700;;;15.74823;37.03119
46174;BME280;31897;52.420;13.498;2023-07-20T04:04:32;100700;;;15.76761;37.06073
46174;BME280;31897;52.420;13.498;2023-07-20T04:07:33;100800;;;15.77957;37.00704
46174;BME280;31897;52.420;13.498;2023-07-20T04:10:34;100800;;;15.82221;36.953
46174;BME280;31897;52.420;13.498;2023-07-20T04:13:35;100800;;;15.80089;36.91158
46174;BME280;31897;52.420;13.498;2023-07-20T04:16:36;100800;;;15.703;36.97219
46174;BME280;31897;52.420;13.498;2023-07-20T04:19:36;100800;;;15.69977;37.03767
46174;BME280;31897;52.420;13.498;2023-07-20T04:22:37;100800;;;15.71625;37.06129
46174;BME280;31897;52.420;13.498;2023-07-20T04:25:39;100800;;;15.72981;37.07899
46174;BME280;31897;52.420;13.498;2023-07-20T04:28:39;100800;;;15.73821;37.0075
46174;BME280;31897;52.420;13.498;2023-07-20T04:31:40;100800;;;15.68879;37.09134
46174;BME280;31897;52.420;13.498;2023-07-20T04:34:42;100800;;;15.73143;37.16823
46174;BME280;31897;52.420;13.498;2023-07-20T04:37:42;100800;;;15.74209;37.19786
46174;BME280;31897;52.420;13.498;2023-07-20T04:40:44;100800;;;15.69008;37.12108
46174;BME280;31897;52.420;13.498;2023-07-20T04:43:44;100800;;;15.60382;37.19934
46174;BME280;31897;52.420;13.498;2023-07-20T04:46:45;100800;;;15.56376;37.32467
46174;BME280;31897;52.420;13.498;2023-07-20T04:49:46;100800;;;15.57862;37.3602
46174;BME280;31897;52.420;13.498;2023-07-20T04:52:47;100800;;;15.62353;37.34784
46174;BME280;31897;52.420;13.498;2023-07-20T04:55:48;100800;;;15.6287;37.24666
46174;BME280;31897;52.420;13.498;2023-07-20T04:58:48;100800;;;15.62256;37.27052
46174;BME280;31897;52.420;13.498;2023-07-20T05:01:49;100800;;;15.72594;37.29324
46174;BME280;31897;52.420;13.498;2023-07-20T05:04:50;100800;;;15.87455;37.24406
46174;BME280;31897;52.420;13.498;2023-07-20T05:07:51;100800;;;16.03058;37.12927
46174;BME280;31897;52.420;13.498;2023-07-20T05:10:51;100800;;;16.1036;36.8843
46174;BME280;31897;52.420;13.498;2023-07-20T05:13:52;100800;;;16.0826;36.80712
46174;BME280;31897;52.420;13.498;2023-07-20T05:16:53;100800;;;16.05611;36.81934
46174;BME280;31897;52.420;13.498;2023-07-20T05:19:54;100800;;;16.09164;36.72959
46174;BME280;31897;52.420;13.498;2023-07-20T05:22:55;100800;;;16.06386;36.6525
46174;BME280;31897;52.420;13.498;2023-07-20T05:25:56;100800;;;15.93722;36.73738
46174;BME280;31897;52.420;13.498;2023-07-20T05:28:57;100800;;;15.91202;36.86864
46174;BME280;31897;52.420;13.498;2023-07-20T05:31:58;100800;;;15.923;36.934
46174;BME280;31897;52.420;13.498;2023-07-20T05:34:59;100800;;;15.9818;36.65944
46174;BME280;31897;52.420;13.498;2023-07-20T05:38:00;100800;;;15.96856;36.74891
46174;BME280;31897;52.420;13.498;2023-07-20T05:41:00;100800;;;16.00603;36.66511
46174;BME280;31897;52.420;13.498;2023-07-20T05:44:01;100800;;;16.06709;36.62269
46174;BME280;31897;52.420;13.498;2023-07-20T05:47:02;100800;;;16.11555;36.53276
46174;BME280;31897;52.420;13.498;2023-07-20T05:50:03;100800;;;16.24316;36.44777
46174;BME280;31897;52.420;13.498;2023-07-20T05:53:04;100800;;;16.36754;36.14224
46174;BME280;31897;52.420;13.498;2023-07-20T05:56:05;100800;;;16.45024;36.20076
46174;BME280;31897;52.420;13.498;2023-07-20T05:59:06;100800;;;16.4441;35.86103
46174;BME280;31897;52.420;13.498;2023-07-20T06:02:07;100800;;;16.42213;35.79576
46174;BME280;31897;52.420;13.498;2023-07-20T06:05:08;100800;;;16.43409;35.81944
46174;BME280;31897;52.420;13.498;2023-07-20T06:08:09;100800;;;16.31197;35.71386
46174;BME280;31897;52.420;13.498;2023-07-20T06:11:09;100800;;;16.24736;35.8876
46174;BME280;31897;52.420;13.498;2023-07-20T06:14:10;100800;;;16.2535;35.79813
46174;BME280;31897;52.420;13.498;2023-07-20T06:17:11;100800;;;16.24445;35.78037
46174;BME280;31897;52.420;13.498;2023-07-20T06:20:12;100800;;;16.26965;35.76214
46174;BME280;31897;52.420;13.498;2023-07-20T06:23:12;100800;;;16.25479;35.58952
46174;BME280;31897;52.420;13.498;2023-07-20T06:26:13;100800;;;16.31617;35.67208
46174;BME280;31897;52.420;13.498;2023-07-20T06:29:14;100800;;;16.43053;35.4081
46174;BME280;31897;52.420;13.498;2023-07-20T06:32:15;100800;;;16.50258;35.28776
46174;BME280;31897;52.420;13.498;2023-07-20T06:35:15;100800;;;16.61662;35.10109
46174;BME280;31897;52.420;13.498;2023-07-20T06:38:16;100800;;;16.62502;34.93392
46174;BME280;31897;52.420;13.498;2023-07-20T06:41:17;100800;;;16.69512;34.89698
46174;BME280;31897;52.420;13.498;2023-07-20T06:44:18;100800;;;16.82984;34.86497
46174;BME280;31897;52.420;13.498;2023-07-20T06:47:19;100800;;;16.81433;34.72794
46174;BME280;31897;52.420;13.498;2023-07-20T06:50:20;100800;;;16.84535;34.70355
46174;BME280;31897;52.420;13.498;2023-07-20T06:53:20;100800;;;16.79689;34.53127
46174;BME280;31897;52.420;13.498;2023-07-20T06:56:21;100800;;;16.71354;34.49091
46174;BME280;31897;52.420;13.498;2023-07-20T06:59:22;100800;;;16.75941;34.44835
46174;BME280;31897;52.420;13.498;2023-07-20T07:02:23;100800;;;16.79107;34.25083
46174;BME280;31897;52.420;13.498;2023-07-20T07:05:23;100800;;;16.96036;34.18812
46174;BME280;31897;52.420;13.498;2023-07-20T07:08:24;100800;;;16.99751;33.82314
46174;BME280;31897;52.420;13.498;2023-07-20T07:11:25;100800;;;17.11349;33.86876
46174;BME280;31897;52.420;13.498;2023-07-20T07:14:25;100800;;;17.24659;33.72883
46174;BME280;31897;52.420;13.498;2023-07-20T07:17:26;100800;;;17.35191;33.35022
46174;BME280;31897;52.420;13.498;2023-07-20T07:20:27;100800;;;17.45206;33.12698
46174;BME280;31897;52.420;13.498;2023-07-20T07:23:28;100800;;;17.54736;33.00541
46174;BME280;31897;52.420;13.498;2023-07-20T07:26:29;100800;;;17.59453;32.80104
46174;BME280;31897;52.420;13.498;2023-07-20T07:29:29;100800;;;17.49761;32.5758
46174;BME280;31897;52.420;13.498;2023-07-20T07:32:30;100800;;;17.53444;32.23401
46174;BME280;31897;52.420;13.498;2023-07-20T07:35:31;100800;;;17.64945;32.06986
46174;BME280;31897;52.420;13.498;2023-07-20T07:38:32;100800;;;17.85105;31.58026
46174;BME280;31897;52.420;13.498;2023-07-20T07:41:33;100800;;;17.78805;31.50993
46174;BME280;31897;52.420;13.498;2023-07-20T07:44:33;100800;;;17.91049;31.45307
46174;BME280;31897;52.420;13.498;2023-07-20T07:47:34;100800;;;18.13987;30.68642
46174;BME280;31897;52.420;13.498;2023-07-20T07:50:35;100800;;;18.2103;30.52274
46174;BME280;31897;52.420;13.498;2023-07-20T07:53:36;100800;;;18.28622;30.38883
46174;BME280;31897;52.420;13.498;2023-07-20T07:56:36;100800;;;18.4232;30.21722
46174;BME280;31897;52.420;13.498;2023-07-20T07:59:37;100800;;;18.61478;29.95397
46174;BME280;31897;52.420;13.498;2023-07-20T08:02:38;100800;;;18.70524;29.15308
46174;BME280;31897;52.420;13.498;2023-07-20T08:05:39;100800;;;18.98793;29.06658
46174;BME280;31897;52.420;13.498;2023-07-20T08:08:40;100800;;;19.05028;28.52994
46174;BME280;31897;52.420;13.498;2023-07-20T08:11:41;100800;;;18.90974;28.11378
46174;BME280;31897;52.420;13.498;2023-07-20T08:14:42;100800;;;19.07612;27.83196
46174;BME280;31897;52.420;13.498;2023-07-20T08:17:42;100800;;;20.87242;25.91938
46174;BME280;31897;52.420;13.498;2023-07-20T08:20:43;100800;;;20.90085;26.05115
46174;BME280;31897;52.420;13.498;2023-07-20T08:23:44;100800;;;20.51445;26.31286
46174;BME280;31897;52.420;13.498;2023-07-20T08:26:45;100800;;;20.15907;26.4946
46174;BME280;31897;52.420;13.498;2023-07-20T08:29:46;100800;;;19.85828;26.94511
46174;BME280;31897;52.420;13.498;2023-07-20T08:32:47;100800;;;19.66799;27.04205
46174;BME280;31897;52.420;13.498;2023-07-20T08:35:47;100800;;;19.92419;26.51511
46174;BME280;31897;52.420;13.498;2023-07-20T08:38:48;100800;;;19.51421;27.00526
46174;BME280;31897;52.420;13.498;2023-07-20T08:41:49;100800;;;19.31843;27.0722
46174;BME280;31897;52.420;13.498;2023-07-20T08:44:50;100800;;;19.18015;27.34154
46174;BME280;31897;52.420;13.498;2023-07-20T08:47:53;100800;;;19.44798;27.18806
46174;BME280;31897;52.420;13.498;2023-07-20T08:50:54;100800;;;19.59175;26.8882
46174;BME280;31897;52.420;13.498;2023-07-20T08:53:56;100800;;;19.71548;26.81162
46174;BME280;31897;52.420;13.498;2023-07-20T08:56:57;100800;;;19.79658;26.10411
46174;BME280;31897;52.420;13.498;2023-07-20T08:59:58;100900;;;19.78721;26.14059
46174;BME280;31897;52.420;13.498;2023-07-20T09:03:00;100800;;;19.59466;26.32224
46174;BME280;31897;52.420;13.498;2023-07-20T09:06:03;100900;;;19.42472;26.47884
46174;BME280;31897;52.420;13.498;2023-07-20T09:09:04;100900;;;19.32037;26.60892
46174;BME280;31897;52.420;13.498;2023-07-20T09:12:05;100900;;;19.22474;26.73862
46174;BME280;31897;52.420;13.498;2023-07-20T09:15:13;100900;;;19.53133;26.45696
46174;BME280;31897;52.420;13.498;2023-07-20T09:18:23;100900;;;19.72873;26.35954
46174;BME280;31897;52.420;13.498;2023-07-20T09:21:24;100800;;;19.89447;25.84144
46174;BME280;31897;52.420;13.498;2023-07-20T09:24:29;100800;;;19.87573;25.95058
46174;BME280;31897;52.420;13.498;2023-07-20T09:27:34;100800;;;19.93162;25.97261
46174;BME280;31897;52.420;13.498;2023-07-20T09:30:35;100800;;;19.98493;25.67534
46174;BME280;31897;52.420;13.498;2023-07-20T09:33:36;100800;;;20.23693;25.42459
46174;BME280;31897;52.420;13.498;2023-07-20T09:36:39;100800;;;20.7028;24.7667
46174;BME280;31897;52.420;13.498;2023-07-20T09:39:43;100900;;;22.29397;22.56299
46174;BME280;31897;52.420;13.498;2023-07-20T09:42:44;100800;;;22.68813;22.53898
46174;BME280;31897;52.420;13.498;2023-07-20T09:45:45;100800;;;22.74338;22.47577
46174;BME280;31897;52.420;13.498;2023-07-20T09:48:51;100800;;;22.05877;22.91298
46174;BME280;31897;52.420;13.498;2023-07-20T09:51:52;100800;;;21.53538;22.85153
46174;BME280;31897;52.420;13.498;2023-07-20T09:54:55;100800;;;21.24687;23.04581
46174;BME280;31897;52.420;13.498;2023-07-20T09:57:56;100800;;;21.38191;23.14875
46174;BME280;31897;52.420;13.498;2023-07-20T10:00:57;100800;;;21.3076;23.07942
46174;BME280;31897;52.420;13.498;2023-07-20T10:03:59;100800;;;21.16707;23.03118
46174;BME280;31897;52.420;13.498;2023-07-20T10:07:04;100800;;;21.05173;23.24783
46174;BME280;31897;52.420;13.498;2023-07-20T10:10:08;100800;;;20.75288;23.39976
46174;BME280;31897;52.420;13.498;2023-07-20T10:13:10;100800;;;20.56162;23.6797
46174;BME280;31897;52.420;13.498;2023-07-20T10:16:14;100800;;;20.50379;23.77875
46174;BME280;31897;52.420;13.498;2023-07-20T10:19:22;100800;;;20.43691;23.88417
46174;BME280;31897;52.420;13.498;2023-07-20T10:22:24;100800;;;20.41817;23.96342
46174;BME280;31897;52.420;13.498;2023-07-20T10:25:25;100800;;;20.4088;23.96381
46174;BME280;31897;52.420;13.498;2023-07-20T10:28:27;100800;;;20.30316;24.07079
46174;BME280;31897;52.420;13.498;2023-07-20T10:31:28;100800;;;20.28636;24.14992
46174;BME280;31897;52.420;13.498;2023-07-20T10:34:29;100800;;;20.3248;24.10609
46174;BME280;31897;52.420;13.498;2023-07-20T10:37:46;100900;;;20.48602;23.90626
46174;BME280;31897;52.420;13.498;2023-07-20T10:40:54;100800;;;20.65854;23.92318
46174;BME280;31897;52.420;13.498;2023-07-20T10:43:58;100800;;;21.38611;23.46313
46174;BME280;31897;52.420;13.498;2023-07-20T10:46:59;100800;;;21.54345;23.46236
46174;BME280;31897;52.420;13.498;2023-07-20T10:50:01;100800;;;21.36608;23.6636
46174;BME280;31897;52.420;13.498;2023-07-20T10:53:10;100800;;;21.25236;23.48704
46174;BME280;31897;52.420;13.498;2023-07-20T10:56:11;100800;;;21.08597;23.70577
46174;BME280;31897;52.420;13.498;2023-07-20T10:59:17;100800;;;20.88663;23.84111
46174;BME280;31897;52.420;13.498;2023-07-20T11:02:18;100900;;;20.79165;23.92968
46174;BME280;31897;52.420;13.498;2023-07-20T11:05:36;100900;;;20.71928;23.95687
46174;BME280;31897;52.420;13.498;2023-07-20T11:08:39;100900;;;20.71799;23.96297
46174;BME280;31897;52.420;13.498;2023-07-20T11:11:40;100900;;;20.69828;23.99398
46174;BME280;31897;52.420;13.498;2023-07-20T11:14:41;100800;;;20.68277;24.12748
46174;BME280;31897;52.420;13.498;2023-07-20T11:17:43;100900;;;20.67017;24.18235
46174;BME280;31897;52.420;13.498;2023-07-20T11:20:43;100900;;;20.5138;24.25521
46174;BME280;31897;52.420;13.498;2023-07-20T11:23:45;100900;;;20.44757;24.36052
46174;BME280;31897;52.420;13.498;2023-07-20T11:26:48;100900;;;20.33611;24.47971
46174;BME280;31897;52.420;13.498;2023-07-20T11:29:49;100900;;;20.39071;24.4775
46174;BME280;31897;52.420;13.498;2023-07-20T11:32:49;100900;;;20.40719;24.58544
46174;BME280;31897;52.420;13.498;2023-07-20T11:35:50;100900;;;20.4143;24.4524
46174;BME280;31897;52.420;13.498;2023-07-20T11:38:51;100900;;;20.44046;24.57806
46174;BME280;31897;52.420;13.498;2023-07-20T11:41:52;100900;;;20.41171;24.4344
46174;BME280;31897;52.420;13.498;2023-07-20T11:44:53;100900;;;20.31059;24.66173
46174;BME280;31897;52.420;13.498;2023-07-20T11:47:54;100900;;;20.36099;24.68987
46174;BME280;31897;52.420;13.498;2023-07-20T11:50:59;100900;;;20.44434;24.7167
46174;BME280;31897;52.420;13.498;2023-07-20T11:54:00;100900;;;20.41494;24.6334
46174;BME280;31897;52.420;13.498;2023-07-20T11:57:02;100900;;;20.31737;24.63733
46174;BME280;31897;52.420;13.498;2023-07-20T12:00:03;100900;;;20.33676;24.66068
46174;BME280;31897;52.420;13.498;2023-07-20T12:03:05;100900;;;20.39459;24.53164
46174;BME280;31897;52.420;13.498;2023-07-20T12:06:06;100900;;;20.43982;24.51774
46174;BME280;31897;52.420;13.498;2023-07-20T12:09:12;100900;;;20.57357;24.59079
46174;BME280;31897;52.420;13.498;2023-07-20T12:12:14;100900;;;20.75062;24.45682
46174;BME280;31897;52.420;13.498;2023-07-20T12:15:15;100900;;;20.90796;24.35979
46174;BME280;31897;52.420;13.498;2023-07-20T12:18:16;100900;;;21.04397;24.05809
46174;BME280;31897;52.420;13.498;2023-07-20T12:21:16;100900;;;21.07725;24.12318
46174;BME280;31897;52.420;13.498;2023-07-20T12:24:19;100900;;;21.01263;23.75723
46174;BME280;31897;52.420;13.498;2023-07-20T12:27:20;100900;;;20.99163;23.51034
46174;BME280;31897;52.420;13.498;2023-07-20T12:30:21;100900;;;21.05173;23.64074
46174;BME280;31897;52.420;13.498;2023-07-20T12:33:22;100900;;;21.08242;23.51853
46174;BME280;31897;52.420;13.498;2023-07-20T12:36:23;100900;;;21.07628;23.49461
46174;BME280;31897;52.420;13.498;2023-07-20T12:39:24;100900;;;20.99745;23.42548
46174;BME280;31897;52.420;13.498;2023-07-20T12:42:24;100900;;;20.89374;23.33329
46174;BME280;31897;52.420;13.498;2023-07-20T12:45:25;100900;;;20.74286;23.47872
46174;BME280;31897;52.420;13.498;2023-07-20T12:48:26;100900;;;20.62042;23.6289
46174;BME280;31897;52.420;13.498;2023-07-20T12:51:27;100900;;;20.55871;23.82473
46174;BME280;31897;52.420;13.498;2023-07-20T12:54:27;100900;;;20.4899;23.87592
46174;BME280;31897;52.420;13.498;2023-07-20T12:57:28;100900;;;20.60329;23.87116
46174;BME280;31897;52.420;13.498;2023-07-20T13:00:29;100900;;;20.75482;23.84063
46174;BME280;31897;52.420;13.498;2023-07-20T13:03:30;100900;;;21.09179;23.65716
46174;BME280;31897;52.420;13.498;2023-07-20T13:06:30;100900;;;21.75669;23.44105
46174;BME280;31897;52.420;13.498;2023-07-20T13:09:31;100800;;;22.27039;23.03689
46174;BME280;31897;52.420;13.498;2023-07-20T13:12:33;100800;;;22.68522;22.45416
46174;BME280;31897;52.420;13.498;2023-07-20T13:15:40;100800;;;23.11848;21.97263
46174;BME280;31897;52.420;13.498;2023-07-20T13:18:41;100800;;;22.98731;21.03736
46174;BME280;31897;52.420;13.498;2023-07-20T13:21:42;100800;;;23.20894;20.66182
46174;BME280;31897;52.420;13.498;2023-07-20T13:24:44;100800;;;23.48551;20.32565
46174;BME280;31897;52.420;13.498;2023-07-20T13:27:45;100800;;;23.81118;19.75516
46174;BME280;31897;52.420;13.498;2023-07-20T13:30:46;100800;;;24.05996;19.29751
46174;BME280;31897;52.420;13.498;2023-07-20T13:33:47;100800;;;24.39888;19.14534
46174;BME280;31897;52.420;13.498;2023-07-20T13:36:48;100800;;;24.57173;18.2699
46174;BME280;31897;52.420;13.498;2023-07-20T13:39:48;100800;;;24.71712;18.17637
46174;BME280;31897;52.420;13.498;2023-07-20T13:42:49;100800;;;24.87931;18.02081
46174;BME280;31897;52.420;13.498;2023-07-20T13:45:50;100800;;;24.94167;17.67535
46174;BME280;31897;52.420;13.498;2023-07-20T13:48:51;100800;;;25.18657;17.50253
46174;BME280;31897;52.420;13.498;2023-07-20T13:51:51;100800;;;25.43826;17.12123
46174;BME280;31897;52.420;13.498;2023-07-20T13:54:53;100800;;;25.53939;16.39975
46174;BME280;31897;52.420;13.498;2023-07-20T13:57:53;100800;;;25.62824;16.40665
46174;BME280;31897;52.420;13.498;2023-07-20T14:00:55;100800;;;25.91612;16.21184
46174;BME280;31897;52.420;13.498;2023-07-20T14:03:56;100800;;;26.15133;16.02609
46174;BME280;31897;52.420;13.498;2023-07-20T14:06:57;100800;;;26.3439;15.73244
46174;BME280;31897;52.420;13.498;2023-07-20T14:09:58;100800;;;26.45763;15.28403
46174;BME280;31897;52.420;13.498;2023-07-20T14:12:59;100800;;;26.57233;15.26457
46174;BME280;31897;52.420;13.498;2023-07-20T14:16:00;100800;;;26.79107;14.91951
46174;BME280;31897;52.420;13.498;2023-07-20T14:19:00;100800;;;26.64083;15.03333
46174;BME280;31897;52.420;13.498;2023-07-20T14:22:03;100800;;;26.23178;15.32881
46174;BME280;31897;52.420;13.498;2023-07-20T14:25:04;100800;;;26.4405;15.00308
46174;BME280;31897;52.420;13.498;2023-07-20T14:28:04;100800;;;26.68154;14.95714
46174;BME280;31897;52.420;13.498;2023-07-20T14:31:05;100800;;;26.87249;14.69339
46174;BME280;31897;52.420;13.498;2023-07-20T14:34:06;100800;;;27.2014;14.76442
46174;BME280;31897;52.420;13.498;2023-07-20T14:37:07;100800;;;27.45762;14.66812
46174;BME280;31897;52.420;13.498;2023-07-20T14:40:08;100800;;;27.7426;14.4407
46174;BME280;31897;52.420;13.498;2023-07-20T14:43:09;100800;;;27.67151;14.24855
46174;BME280;31897;52.420;13.498;2023-07-20T14:46:10;100800;;;27.635;14.23249
46174;BME280;31897;52.420;13.498;2023-07-20T14:49:10;100800;;;27.85697;14.37781
46174;BME280;31897;52.420;13.498;2023-07-20T14:52:11;100800;;;28.08056;14.16641
46174;BME280;31897;52.420;13.498;2023-07-20T14:55:12;100800;;;28.12547;13.9542
46174;BME280;31897;52.420;13.498;2023-07-20T14:58:13;100800;;;28.10576;13.79546
46174;BME280;31897;52.420;13.498;2023-07-20T15:01:13;100800;;;27.88638;13.74234
46174;BME280;31897;52.420;13.498;2023-07-20T15:04:14;100800;;;27.69962;13.53948